Springfield, Maine
Current Conditions -  °F | °C
As of 6:53 AM on Saturday 01 Nov 2014 (Local Time) from KMLT Reporting Station
Light Rain Light Rain  
Wind Chill: 30°   Ceiling: 3300
Heat Index: 37°   Visibility: 7mi
Dew Point: 33°   Wind: 9mph
Humidity: 86%   Direction: 20°NNE
Pressure: 30.08"   Gusts: NA
Location:  45.4°N, 68.13°W
Report Text: KMLT 011053Z AUTO 02008KT 7SM -RA OVC033 03/01 A3008 RMK AO2 SLP195 P0002 T00280006
Loading
Personal Weather Stations






























Interactive Weather Map
Tropical Storm Tracking
New forecast layout! Learn more

10-Day Weather Forecast

Advertisements
Track Severe Weather on mobile